Arapahoe, Nebraska
Current Conditions -  °F | °C
As of 1:55 AM on Monday 24 Nov 2014 (Local Time) from KHDE Reporting Station
Broken Clouds Broken Clouds  
Wind Chill: 23°   Ceiling: 6500
Heat Index: 33°   Visibility: 10mi
Dew Point: 21°   Wind: 15mph
Humidity: 62%   Direction: 270°W
Pressure: 29.65"   Gusts: 20mph
Location:  40.3°N, 99.9°W
Report Text: KHDE 240755Z AUTO 27013G17KT 10SM BKN065 00/M06 A2965 RMK AO2 T00041062
Loading
Personal Weather Stations






























Interactive Weather Map New forecast layout! Learn more

10-Day Weather Forecast

Advertisements
Track Severe Weather on mobile